sensor_id;sensor_type;location;lat;lon;timestamp;pressure;altitude;pressure_sealevel;temperature;humidity
62655;BME280;48717;55.556;37.816;2023-02-17T00:01:16;100166.41;;;-8.93;84.75
62655;BME280;48717;55.556;37.816;2023-02-17T00:03:44;100216.97;;;-8.58;84.13
62655;BME280;48717;55.556;37.816;2023-02-17T00:06:16;100200.63;;;-8.70;84.38
62655;BME280;48717;55.556;37.816;2023-02-17T00:08:44;100218.34;;;-8.51;83.20
62655;BME280;48717;55.556;37.816;2023-02-17T00:11:12;100213.47;;;-8.48;83.77
62655;BME280;48717;55.556;37.816;2023-02-17T00:13:40;100177.09;;;-8.66;83.64
62655;BME280;48717;55.556;37.816;2023-02-17T00:16:10;100214.75;;;-8.43;83.12
62655;BME280;48717;55.556;37.816;2023-02-17T00:18:38;100193.53;;;-8.52;83.35
62655;BME280;48717;55.556;37.816;2023-02-17T00:21:20;100211.03;;;-8.36;83.38
62655;BME280;48717;55.556;37.816;2023-02-17T00:23:48;100219.59;;;-8.35;82.39
62655;BME280;48717;55.556;37.816;2023-02-17T00:26:17;100204.91;;;-8.38;82.42
62655;BME280;48717;55.556;37.816;2023-02-17T00:28:46;100213.19;;;-8.30;82.24
62655;BME280;48717;55.556;37.816;2023-02-17T00:31:16;100202.22;;;-8.40;82.36
62655;BME280;48717;55.556;37.816;2023-02-17T00:33:43;100189.94;;;-8.44;82.60
62655;BME280;48717;55.556;37.816;2023-02-17T00:36:13;100210.09;;;-8.26;82.12
62655;BME280;48717;55.556;37.816;2023-02-17T00:38:41;100204.38;;;-8.34;82.37
62655;BME280;48717;55.556;37.816;2023-02-17T00:41:08;100214.06;;;-8.30;81.91
62655;BME280;48717;55.556;37.816;2023-02-17T00:43:35;100185.34;;;-8.48;81.42
62655;BME280;48717;55.556;37.816;2023-02-17T00:46:02;100199.91;;;-8.47;81.54
62655;BME280;48717;55.556;37.816;2023-02-17T00:48:30;100181.22;;;-8.46;81.56
62655;BME280;48717;55.556;37.816;2023-02-17T00:50:58;100212.44;;;-8.40;81.32
62655;BME280;48717;55.556;37.816;2023-02-17T00:53:25;100201.47;;;-8.49;81.61
62655;BME280;48717;55.556;37.816;2023-02-17T00:55:53;100190.34;;;-8.49;82.09
62655;BME280;48717;55.556;37.816;2023-02-17T00:58:20;100199.66;;;-8.50;82.00
62655;BME280;48717;55.556;37.816;2023-02-17T01:00:47;100158.72;;;-8.72;81.80
62655;BME280;48717;55.556;37.816;2023-02-17T01:03:14;100215.53;;;-8.44;82.56
62655;BME280;48717;55.556;37.816;2023-02-17T01:05:44;100199.25;;;-8.44;82.90
62655;BME280;48717;55.556;37.816;2023-02-17T01:08:14;100206.69;;;-8.37;82.68
62655;BME280;48717;55.556;37.816;2023-02-17T01:10:43;100199.66;;;-8.40;83.01
62655;BME280;48717;55.556;37.816;2023-02-17T01:13:11;100174.59;;;-8.44;83.67
62655;BME280;48717;55.556;37.816;2023-02-17T01:15:47;100171.53;;;-8.50;82.56
62655;BME280;48717;55.556;37.816;2023-02-17T01:18:16;100191.25;;;-8.49;82.31
62655;BME280;48717;55.556;37.816;2023-02-17T01:20:44;100164.97;;;-8.69;82.92
62655;BME280;48717;55.556;37.816;2023-02-17T01:23:11;100171.34;;;-8.63;83.07
62655;BME280;48717;55.556;37.816;2023-02-17T01:25:40;100176.44;;;-8.63;83.26
62655;BME280;48717;55.556;37.816;2023-02-17T01:28:14;100183.59;;;-8.59;83.37
62655;BME280;48717;55.556;37.816;2023-02-17T01:30:41;100187.78;;;-8.49;82.89
62655;BME280;48717;55.556;37.816;2023-02-17T01:33:12;100155.03;;;-8.76;83.24
62655;BME280;48717;55.556;37.816;2023-02-17T01:35:39;100161.78;;;-8.76;84.11
62655;BME280;48717;55.556;37.816;2023-02-17T01:38:06;100126.41;;;-8.93;83.75
62655;BME280;48717;55.556;37.816;2023-02-17T01:40:33;100190.63;;;-8.57;83.69
62655;BME280;48717;55.556;37.816;2023-02-17T01:43:01;100195.22;;;-8.53;84.60
62655;BME280;48717;55.556;37.816;2023-02-17T01:45:34;100180.03;;;-8.61;84.09
62655;BME280;48717;55.556;37.816;2023-02-17T01:48:06;100199.91;;;-8.47;84.89
62655;BME280;48717;55.556;37.816;2023-02-17T01:50:39;100180.31;;;-8.58;84.88
62655;BME280;48717;55.556;37.816;2023-02-17T01:53:10;100174.63;;;-8.54;85.33
62655;BME280;48717;55.556;37.816;2023-02-17T01:55:39;100202.44;;;-8.36;85.35
62655;BME280;48717;55.556;37.816;2023-02-17T01:58:08;100194.25;;;-8.32;85.94
62655;BME280;48717;55.556;37.816;2023-02-17T02:00:36;100194.25;;;-8.32;85.14
62655;BME280;48717;55.556;37.816;2023-02-17T02:03:06;100198.09;;;-8.27;84.92
62655;BME280;48717;55.556;37.816;2023-02-17T02:05:33;100192.06;;;-8.28;85.28
62655;BME280;48717;55.556;37.816;2023-02-17T02:08:03;100160.78;;;-8.46;85.13
62655;BME280;48717;55.556;37.816;2023-02-17T02:10:32;100172.38;;;-8.39;84.46
62655;BME280;48717;55.556;37.816;2023-02-17T02:12:59;100177.75;;;-8.36;84.85
62655;BME280;48717;55.556;37.816;2023-02-17T02:15:38;100196.78;;;-8.22;84.40
62655;BME280;48717;55.556;37.816;2023-02-17T02:18:38;100212.16;;;-8.22;84.45
62655;BME280;48717;55.556;37.816;2023-02-17T02:24:08;100205.75;;;-8.27;84.16
62655;BME280;48717;55.556;37.816;2023-02-17T02:26:59;100206.28;;;-8.31;84.88
62655;BME280;48717;55.556;37.816;2023-02-17T02:29:58;100205.25;;;-8.33;84.93
62655;BME280;48717;55.556;37.816;2023-02-17T02:35:13;100207.06;;;-8.43;84.67
62655;BME280;48717;55.556;37.816;2023-02-17T02:37:51;100203.50;;;-8.45;85.45
62655;BME280;48717;55.556;37.816;2023-02-17T02:40:21;100203.25;;;-8.48;85.16
62655;BME280;48717;55.556;37.816;2023-02-17T02:42:50;100158.84;;;-8.81;85.85
62655;BME280;48717;55.556;37.816;2023-02-17T02:45:17;100205.88;;;-8.58;86.64
62655;BME280;48717;55.556;37.816;2023-02-17T02:58:27;100204.88;;;-8.71;87.49
62655;BME280;48717;55.556;37.816;2023-02-17T03:01:19;100204.34;;;-8.77;87.58
62655;BME280;48717;55.556;37.816;2023-02-17T03:04:09;100203.69;;;-8.74;87.20
62655;BME280;48717;55.556;37.816;2023-02-17T03:06:52;100206.91;;;-8.77;87.86
62655;BME280;48717;55.556;37.816;2023-02-17T03:09:26;100211.88;;;-8.79;87.68
62655;BME280;48717;55.556;37.816;2023-02-17T03:11:55;100192.34;;;-8.88;87.63
62655;BME280;48717;55.556;37.816;2023-02-17T03:14:25;100199.25;;;-8.87;87.27
62655;BME280;48717;55.556;37.816;2023-02-17T03:16:53;100210.09;;;-8.80;87.70
62655;BME280;48717;55.556;37.816;2023-02-17T03:19:24;100158.34;;;-9.08;88.08
62655;BME280;48717;55.556;37.816;2023-02-17T03:21:56;100162.19;;;-9.03;88.53
62655;BME280;48717;55.556;37.816;2023-02-17T03:24:24;100185.69;;;-8.86;88.67
62655;BME280;48717;55.556;37.816;2023-02-17T03:26:51;100201.16;;;-8.85;89.56
62655;BME280;48717;55.556;37.816;2023-02-17T03:29:18;100193.88;;;-8.91;89.91
62655;BME280;48717;55.556;37.816;2023-02-17T03:31:46;100200.25;;;-8.85;89.91
62655;BME280;48717;55.556;37.816;2023-02-17T03:34:13;100089.53;;;-9.48;90.26
62655;BME280;48717;55.556;37.816;2023-02-17T03:36:40;100150.94;;;-9.05;90.06
62655;BME280;48717;55.556;37.816;2023-02-17T03:39:09;100183.13;;;-8.86;90.35
62655;BME280;48717;55.556;37.816;2023-02-17T03:41:36;100138.69;;;-9.09;90.30
62655;BME280;48717;55.556;37.816;2023-02-17T03:44:03;100204.88;;;-8.71;90.11
62655;BME280;48717;55.556;37.816;2023-02-17T03:46:30;100201.25;;;-8.73;90.30
62655;BME280;48717;55.556;37.816;2023-02-17T03:48:58;100203.56;;;-8.66;89.89
62655;BME280;48717;55.556;37.816;2023-02-17T03:51:25;100212.25;;;-8.63;89.81
62655;BME280;48717;55.556;37.816;2023-02-17T03:53:52;100200.25;;;-8.65;89.59
62655;BME280;48717;55.556;37.816;2023-02-17T03:56:19;100175.06;;;-8.70;89.81
62655;BME280;48717;55.556;37.816;2023-02-17T03:58:46;100197.78;;;-8.53;90.20
62655;BME280;48717;55.556;37.816;2023-02-17T04:01:14;100175.19;;;-8.58;89.51
62655;BME280;48717;55.556;37.816;2023-02-17T04:03:41;100199.25;;;-8.44;88.96
62655;BME280;48717;55.556;37.816;2023-02-17T04:06:09;100193.91;;;-8.47;88.29
62655;BME280;48717;55.556;37.816;2023-02-17T04:08:37;100186.75;;;-8.41;88.46
62655;BME280;48717;55.556;37.816;2023-02-17T04:11:07;100204.72;;;-8.29;88.77
62655;BME280;48717;55.556;37.816;2023-02-17T04:13:35;100201.41;;;-8.28;89.15
62655;BME280;48717;55.556;37.816;2023-02-17T04:16:02;100209.81;;;-8.19;89.15
62655;BME280;48717;55.556;37.816;2023-02-17T04:18:31;100190.63;;;-8.24;89.16
62655;BME280;48717;55.556;37.816;2023-02-17T04:20:58;100203.03;;;-8.18;89.47
62655;BME280;48717;55.556;37.816;2023-02-17T04:23:25;100205.72;;;-8.17;89.69
62655;BME280;48717;55.556;37.816;2023-02-17T04:25:53;100216.44;;;-8.10;88.93
62655;BME280;48717;55.556;37.816;2023-02-17T04:28:20;100162.16;;;-8.39;88.48
62655;BME280;48717;55.556;37.816;2023-02-17T04:30:49;100223.97;;;-8.12;87.97
62655;BME280;48717;55.556;37.816;2023-02-17T04:33:17;100205.63;;;-8.29;89.22
62655;BME280;48717;55.556;37.816;2023-02-17T04:35:45;100168.97;;;-8.50;88.55
62655;BME280;48717;55.556;37.816;2023-02-17T04:38:12;100222.50;;;-8.31;88.35
62655;BME280;48717;55.556;37.816;2023-02-17T04:40:39;100216.53;;;-8.31;88.70
62655;BME280;48717;55.556;37.816;2023-02-17T04:43:07;100204.78;;;-8.40;89.67
62655;BME280;48717;55.556;37.816;2023-02-17T04:45:35;100176.97;;;-8.57;89.56
62655;BME280;48717;55.556;37.816;2023-02-17T04:48:02;100165.69;;;-8.59;89.75
62655;BME280;48717;55.556;37.816;2023-02-17T04:50:30;100211.63;;;-8.28;89.66
62655;BME280;48717;55.556;37.816;2023-02-17T04:52:58;100172.81;;;-8.45;89.99
62655;BME280;48717;55.556;37.816;2023-02-17T04:55:25;100189.78;;;-8.35;90.45
62655;BME280;48717;55.556;37.816;2023-02-17T04:57:52;100190.69;;;-8.34;90.39
62655;BME280;48717;55.556;37.816;2023-02-17T05:00:20;100188.66;;;-8.39;89.59
62655;BME280;48717;55.556;37.816;2023-02-17T05:02:47;100196.06;;;-8.31;90.61
62655;BME280;48717;55.556;37.816;2023-02-17T05:05:14;100209.31;;;-8.25;90.71
62655;BME280;48717;55.556;37.816;2023-02-17T05:07:45;100212.16;;;-8.22;90.40
62655;BME280;48717;55.556;37.816;2023-02-17T05:10:13;100200.34;;;-8.20;90.96
62655;BME280;48717;55.556;37.816;2023-02-17T05:12:41;100211.97;;;-8.13;90.79
62655;BME280;48717;55.556;37.816;2023-02-17T05:15:08;100219.25;;;-8.07;90.53
62655;BME280;48717;55.556;37.816;2023-02-17T05:17:36;100213.13;;;-8.09;90.94
62655;BME280;48717;55.556;37.816;2023-02-17T05:20:04;100218.72;;;-8.03;89.78
62655;BME280;48717;55.556;37.816;2023-02-17T05:22:31;100199.44;;;-8.10;89.48
62655;BME280;48717;55.556;37.816;2023-02-17T05:24:59;100208.22;;;-8.06;90.60
62655;BME280;48717;55.556;37.816;2023-02-17T05:27:26;100200.03;;;-8.02;90.76
62655;BME280;48717;55.556;37.816;2023-02-17T05:29:53;100196.88;;;-8.10;90.11
62655;BME280;48717;55.556;37.816;2023-02-17T05:32:22;100185.25;;;-8.17;89.96
62655;BME280;48717;55.556;37.816;2023-02-17T05:34:49;100208.97;;;-7.97;90.16
62655;BME280;48717;55.556;37.816;2023-02-17T05:37:16;100219.19;;;-7.97;90.59
62655;BME280;48717;55.556;37.816;2023-02-17T05:39:44;100185.00;;;-8.20;89.43
62655;BME280;48717;55.556;37.816;2023-02-17T05:42:11;100208.50;;;-8.03;89.81
62655;BME280;48717;55.556;37.816;2023-02-17T05:44:38;100229.16;;;-7.90;89.91
62655;BME280;48717;55.556;37.816;2023-02-17T05:47:05;100186.22;;;-8.04;89.57
62655;BME280;48717;55.556;37.816;2023-02-17T05:49:32;100213.75;;;-7.79;89.79
62655;BME280;48717;55.556;37.816;2023-02-17T05:52:00;100222.72;;;-7.74;90.27
62655;BME280;48717;55.556;37.816;2023-02-17T05:54:28;100215.25;;;-7.71;89.07
62655;BME280;48717;55.556;37.816;2023-02-17T05:56:55;100193.28;;;-7.79;88.03
62655;BME280;48717;55.556;37.816;2023-02-17T05:59:22;100228.38;;;-7.56;89.08
62655;BME280;48717;55.556;37.816;2023-02-17T06:01:49;100214.91;;;-7.53;87.83
62655;BME280;48717;55.556;37.816;2023-02-17T06:04:16;100228.22;;;-7.47;88.60
62655;BME280;48717;55.556;37.816;2023-02-17T06:06:44;100221.06;;;-7.51;88.39
62655;BME280;48717;55.556;37.816;2023-02-17T06:09:11;100201.84;;;-7.56;87.39
62655;BME280;48717;55.556;37.816;2023-02-17T06:11:38;100227.88;;;-7.40;88.40
62655;BME280;48717;55.556;37.816;2023-02-17T06:14:05;100223.00;;;-7.37;87.46
62655;BME280;48717;55.556;37.816;2023-02-17T06:16:33;100205.84;;;-7.38;86.93
62655;BME280;48717;55.556;37.816;2023-02-17T06:19:00;100209.16;;;-7.39;87.23
62655;BME280;48717;55.556;37.816;2023-02-17T06:21:28;100227.63;;;-7.21;86.43
62655;BME280;48717;55.556;37.816;2023-02-17T06:23:55;100211.28;;;-7.23;86.30
62655;BME280;48717;55.556;37.816;2023-02-17T06:26:22;100184.81;;;-7.34;86.64
62655;BME280;48717;55.556;37.816;2023-02-17T06:28:49;100197.47;;;-7.13;86.41
62655;BME280;48717;55.556;37.816;2023-02-17T06:31:17;100178.22;;;-7.08;85.10
62655;BME280;48717;55.556;37.816;2023-02-17T06:33:44;100223.09;;;-6.78;85.24
62655;BME280;48717;55.556;37.816;2023-02-17T06:36:11;100165.31;;;-6.97;84.20
62655;BME280;48717;55.556;37.816;2023-02-17T06:38:38;100176.47;;;-6.85;84.02
62655;BME280;48717;55.556;37.816;2023-02-17T06:41:05;100217.56;;;-6.61;83.72
62655;BME280;48717;55.556;37.816;2023-02-17T06:43:32;100221.03;;;-6.48;82.99
62655;BME280;48717;55.556;37.816;2023-02-17T06:45:59;100183.66;;;-6.57;83.13
62655;BME280;48717;55.556;37.816;2023-02-17T06:48:26;100218.69;;;-6.21;82.20
62655;BME280;48717;55.556;37.816;2023-02-17T06:50:54;100219.59;;;-6.09;81.60
62655;BME280;48717;55.556;37.816;2023-02-17T06:53:21;100225.50;;;-6.10;82.10
62655;BME280;48717;55.556;37.816;2023-02-17T06:55:48;100221.81;;;-6.13;81.63
62655;BME280;48717;55.556;37.816;2023-02-17T06:58:15;100204.41;;;-6.30;81.45
62655;BME280;48717;55.556;37.816;2023-02-17T07:00:42;100208.00;;;-6.27;82.17
62655;BME280;48717;55.556;37.816;2023-02-17T07:03:09;100156.34;;;-6.56;81.86
62655;BME280;48717;55.556;37.816;2023-02-17T07:05:37;100191.41;;;-5.95;81.86
62655;BME280;48717;55.556;37.816;2023-02-17T07:08:05;100125.13;;;-5.76;79.80
62655;BME280;48717;55.556;37.816;2023-02-17T07:10:32;100163.47;;;-4.89;77.02
62655;BME280;48717;55.556;37.816;2023-02-17T07:12:59;100145.44;;;-4.36;75.24
62655;BME280;48717;55.556;37.816;2023-02-17T07:15:27;100155.63;;;-3.69;72.30
62655;BME280;48717;55.556;37.816;2023-02-17T07:17:54;100154.06;;;-3.23;69.75
62655;BME280;48717;55.556;37.816;2023-02-17T07:20:21;100189.72;;;-2.57;67.19
62655;BME280;48717;55.556;37.816;2023-02-17T07:22:48;100176.53;;;-2.46;65.08
62655;BME280;48717;55.556;37.816;2023-02-17T07:25:15;100193.28;;;-2.55;64.92
62655;BME280;48717;55.556;37.816;2023-02-17T07:27:42;100197.16;;;-2.92;64.35
62655;BME280;48717;55.556;37.816;2023-02-17T07:30:09;100200.13;;;-3.29;65.83
62655;BME280;48717;55.556;37.816;2023-02-17T07:32:37;100172.91;;;-3.81;66.72
62655;BME280;48717;55.556;37.816;2023-02-17T07:35:04;100196.03;;;-4.10;68.26
62655;BME280;48717;55.556;37.816;2023-02-17T07:37:31;100205.75;;;-4.19;68.58
62655;BME280;48717;55.556;37.816;2023-02-17T07:39:59;100187.31;;;-4.39;69.73
62655;BME280;48717;55.556;37.816;2023-02-17T07:42:27;100158.09;;;-4.66;71.36
62655;BME280;48717;55.556;37.816;2023-02-17T07:44:54;100161.03;;;-4.87;71.54
62655;BME280;48717;55.556;37.816;2023-02-17T07:47:21;100187.16;;;-4.81;71.29
62655;BME280;48717;55.556;37.816;2023-02-17T07:49:48;100172.47;;;-4.95;72.37
62655;BME280;48717;55.556;37.816;2023-02-17T07:52:16;100154.66;;;-5.06;72.59
62655;BME280;48717;55.556;37.816;2023-02-17T07:54:44;100190.63;;;-4.80;72.68
62655;BME280;48717;55.556;37.816;2023-02-17T07:57:11;100178.03;;;-4.89;72.41
62655;BME280;48717;55.556;37.816;2023-02-17T07:59:38;100201.00;;;-4.79;72.41
62655;BME280;48717;55.556;37.816;2023-02-17T08:02:06;100190.50;;;-4.82;72.36
62655;BME280;48717;55.556;37.816;2023-02-17T08:04:33;100169.59;;;-5.00;72.12
62655;BME280;48717;55.556;37.816;2023-02-17T08:07:00;100170.13;;;-4.92;71.93
62655;BME280;48717;55.556;37.816;2023-02-17T08:09:27;100175.47;;;-4.89;72.52
62655;BME280;48717;55.556;37.816;2023-02-17T08:12:18;100193.19;;;-4.80;71.24
62655;BME280;48717;55.556;37.816;2023-02-17T08:15:06;100194.19;;;-4.78;72.51
62655;BME280;48717;55.556;37.816;2023-02-17T08:17:34;100181.34;;;-4.78;72.69
62655;BME280;48717;55.556;37.816;2023-02-17T08:20:01;100199.25;;;-4.80;71.71
62655;BME280;48717;55.556;37.816;2023-02-17T08:22:35;100192.72;;;-4.75;72.34
62655;BME280;48717;55.556;37.816;2023-02-17T08:25:03;100133.28;;;-5.05;71.60
62655;BME280;48717;55.556;37.816;2023-02-17T08:27:32;100194.13;;;-4.66;71.65
62655;BME280;48717;55.556;37.816;2023-02-17T08:29:59;100200.34;;;-4.63;72.17
62655;BME280;48717;55.556;37.816;2023-02-17T08:32:26;100201.75;;;-4.54;71.98
62655;BME280;48717;55.556;37.816;2023-02-17T08:34:56;100197.50;;;-4.54;72.05
62655;BME280;48717;55.556;37.816;2023-02-17T08:37:23;100193.13;;;-4.55;72.02
62655;BME280;48717;55.556;37.816;2023-02-17T08:39:50;100186.53;;;-4.51;71.65
62655;BME280;48717;55.556;37.816;2023-02-17T08:42:18;100183.84;;;-4.53;70.18
62655;BME280;48717;55.556;37.816;2023-02-17T08:44:45;100143.63;;;-4.64;70.73
62655;BME280;48717;55.556;37.816;2023-02-17T08:47:13;100147.59;;;-4.56;70.88
62655;BME280;48717;55.556;37.816;2023-02-17T08:49:40;100178.69;;;-4.12;69.73
62655;BME280;48717;55.556;37.816;2023-02-17T08:52:07;100190.25;;;-3.92;69.38
62655;BME280;48717;55.556;37.816;2023-02-17T08:54:34;100188.16;;;-3.84;68.06
62655;BME280;48717;55.556;37.816;2023-02-17T08:57:02;100191.44;;;-3.87;67.71
62655;BME280;48717;55.556;37.816;2023-02-17T08:59:29;100173.72;;;-3.96;68.02
62655;BME280;48717;55.556;37.816;2023-02-17T09:01:56;100177.69;;;-3.87;69.66
62655;BME280;48717;55.556;37.816;2023-02-17T09:04:24;100177.28;;;-4.07;67.74
62655;BME280;48717;55.556;37.816;2023-02-17T09:06:52;100190.16;;;-4.07;68.66
62655;BME280;48717;55.556;37.816;2023-02-17T09:09:23;100191.34;;;-4.15;70.20
62655;BME280;48717;55.556;37.816;2023-02-17T09:11:56;100162.88;;;-4.32;71.12
62655;BME280;48717;55.556;37.816;2023-02-17T09:14:23;100189.22;;;-4.23;70.85
62655;BME280;48717;55.556;37.816;2023-02-17T09:16:51;100188.03;;;-4.28;70.69
62655;BME280;48717;55.556;37.816;2023-02-17T09:19:19;100175.22;;;-4.40;70.93
62655;BME280;48717;55.556;37.816;2023-02-17T09:21:46;100175.31;;;-4.38;71.06
62655;BME280;48717;55.556;37.816;2023-02-17T09:24:15;100176.50;;;-4.33;69.75
62655;BME280;48717;55.556;37.816;2023-02-17T09:26:42;100173.34;;;-4.29;69.77
62655;BME280;48717;55.556;37.816;2023-02-17T09:29:10;100157.72;;;-4.32;69.82
62655;BME280;48717;55.556;37.816;2023-02-17T09:31:37;100177.72;;;-4.14;69.31
62655;BME280;48717;55.556;37.816;2023-02-17T09:34:04;100178.22;;;-4.20;68.94
62655;BME280;48717;55.556;37.816;2023-02-17T09:36:36;100173.94;;;-4.20;66.87
62655;BME280;48717;55.556;37.816;2023-02-17T09:39:04;100164.84;;;-4.28;69.14
62655;BME280;48717;55.556;37.816;2023-02-17T09:44:04;100158.00;;;-4.41;68.95
62655;BME280;48717;55.556;37.816;2023-02-17T09:46:40;100155.53;;;-4.39;69.33
62655;BME280;48717;55.556;37.816;2023-02-17T09:49:31;100157.13;;;-4.41;69.21
62655;BME280;48717;55.556;37.816;2023-02-17T09:52:06;100164.31;;;-4.49;69.11
62655;BME280;48717;55.556;37.816;2023-02-17T09:55:06;100166.03;;;-4.36;68.47
62655;BME280;48717;55.556;37.816;2023-02-17T09:57:45;100167.41;;;-4.28;68.35
62655;BME280;48717;55.556;37.816;2023-02-17T10:00:17;100141.94;;;-4.23;70.40
62655;BME280;48717;55.556;37.816;2023-02-17T10:03:15;100141.34;;;-4.19;69.83
62655;BME280;48717;55.556;37.816;2023-02-17T10:05:54;100123.69;;;-4.13;69.49
62655;BME280;48717;55.556;37.816;2023-02-17T10:08:34;100118.22;;;-3.90;67.73
62655;BME280;48717;55.556;37.816;2023-02-17T10:11:16;100122.16;;;-3.82;66.74
62655;BME280;48717;55.556;37.816;2023-02-17T10:13:45;100107.66;;;-3.80;65.48
62655;BME280;48717;55.556;37.816;2023-02-17T10:16:20;100140.97;;;-3.70;65.33
62655;BME280;48717;55.556;37.816;2023-02-17T10:18:56;100135.97;;;-3.67;64.63
62655;BME280;48717;55.556;37.816;2023-02-17T10:21:34;100126.56;;;-3.66;65.81
62655;BME280;48717;55.556;37.816;2023-02-17T10:24:03;100132.78;;;-3.62;65.50
62655;BME280;48717;55.556;37.816;2023-02-17T10:32:25;100132.47;;;-3.54;66.68
62655;BME280;48717;55.556;37.816;2023-02-17T10:37:48;100091.47;;;-3.92;66.09
62655;BME280;48717;55.556;37.816;2023-02-17T10:40:19;100125.66;;;-3.67;67.21
62655;BME280;48717;55.556;37.816;2023-02-17T10:42:56;100063.78;;;-4.10;67.12
62655;BME280;48717;55.556;37.816;2023-02-17T10:45:34;100114.63;;;-3.79;66.87
62655;BME280;48717;55.556;37.816;2023-02-17T10:50:30;100096.66;;;-4.20;67.52
62655;BME280;48717;55.556;37.816;2023-02-17T10:52:58;100098.28;;;-4.22;67.29
62655;BME280;48717;55.556;37.816;2023-02-17T10:55:42;100111.03;;;-4.23;67.83
62655;BME280;48717;55.556;37.816;2023-02-17T10:58:18;100109.56;;;-4.33;67.65
62655;BME280;48717;55.556;37.816;2023-02-17T11:00:52;100089.09;;;-4.45;68.15
62655;BME280;48717;55.556;37.816;2023-02-17T11:03:23;100115.13;;;-4.27;69.23
62655;BME280;48717;55.556;37.816;2023-02-17T11:05:56;100106.63;;;-4.53;68.48
62655;BME280;48717;55.556;37.816;2023-02-17T11:11:14;100094.72;;;-4.51;70.18
62655;BME280;48717;55.556;37.816;2023-02-17T11:13:54;100082.66;;;-4.52;69.23
62655;BME280;48717;55.556;37.816;2023-02-17T11:16:27;100096.22;;;-4.41;68.91
62655;BME280;48717;55.556;37.816;2023-02-17T11:18:55;100106.13;;;-4.61;68.41
62655;BME280;48717;55.556;37.816;2023-02-17T11:21:22;100107.81;;;-4.61;68.94
62655;BME280;48717;55.556;37.816;2023-02-17T11:24:01;100107.53;;;-4.66;69.38
62655;BME280;48717;55.556;37.816;2023-02-17T11:26:31;100107.91;;;-4.73;69.29
62655;BME280;48717;55.556;37.816;2023-02-17T11:29:20;100045.66;;;-5.08;69.61
62655;BME280;48717;55.556;37.816;2023-02-17T11:31:58;100109.41;;;-4.77;70.06
62655;BME280;48717;55.556;37.816;2023-02-17T11:34:30;100061.88;;;-4.95;69.38
62655;BME280;48717;55.556;37.816;2023-02-17T11:37:05;100084.06;;;-4.70;69.76
62655;BME280;48717;55.556;37.816;2023-02-17T11:39:46;100084.06;;;-4.57;69.18
62655;BME280;48717;55.556;37.816;2023-02-17T11:42:29;100043.78;;;-4.56;68.95
62655;BME280;48717;55.556;37.816;2023-02-17T11:44:59;100059.47;;;-4.38;69.13
62655;BME280;48717;55.556;37.816;2023-02-17T11:50:18;100058.88;;;-4.34;69.33
62655;BME280;48717;55.556;37.816;2023-02-17T11:53:15;100066.53;;;-4.07;69.87
62655;BME280;48717;55.556;37.816;2023-02-17T11:56:12;100079.00;;;-4.00;69.48
62655;BME280;48717;55.556;37.816;2023-02-17T12:02:16;100073.75;;;-3.73;67.26
62655;BME280;48717;55.556;37.816;2023-02-17T12:05:25;100067.19;;;-3.68;67.63
62655;BME280;48717;55.556;37.816;2023-02-17T12:10:58;100064.75;;;-4.08;67.73
62655;BME280;48717;55.556;37.816;2023-02-17T12:14:18;100058.34;;;-3.86;68.40
62655;BME280;48717;55.556;37.816;2023-02-17T12:20:01;100049.56;;;-3.90;67.51
62655;BME280;48717;55.556;37.816;2023-02-17T12:22:54;100063.75;;;-3.97;67.47
62655;BME280;48717;55.556;37.816;2023-02-17T12:25:30;100048.16;;;-4.27;68.67
62655;BME280;48717;55.556;37.816;2023-02-17T12:31:24;100015.56;;;-4.68;70.60
62655;BME280;48717;55.556;37.816;2023-02-17T12:34:19;100060.09;;;-4.56;72.41
62655;BME280;48717;55.556;37.816;2023-02-17T12:36:49;100059.13;;;-4.72;72.19
62655;BME280;48717;55.556;37.816;2023-02-17T12:41:52;100052.78;;;-4.77;74.39
62655;BME280;48717;55.556;37.816;2023-02-17T12:44:27;100023.28;;;-4.82;73.78
62655;BME280;48717;55.556;37.816;2023-02-17T12:46:56;100041.38;;;-4.67;74.15
62655;BME280;48717;55.556;37.816;2023-02-17T12:49:39;100040.19;;;-4.59;74.44
62655;BME280;48717;55.556;37.816;2023-02-17T12:52:26;100068.00;;;-4.39;73.44
62655;BME280;48717;55.556;37.816;2023-02-17T12:54:57;100052.97;;;-4.60;73.42
62655;BME280;48717;55.556;37.816;2023-02-17T12:59:55;100051.78;;;-4.79;74.60
62655;BME280;48717;55.556;37.816;2023-02-17T13:02:25;100038.94;;;-4.92;75.60
62655;BME280;48717;55.556;37.816;2023-02-17T13:04:54;100072.16;;;-4.68;76.82
62655;BME280;48717;55.556;37.816;2023-02-17T13:07:47;100052.16;;;-4.73;77.22
62655;BME280;48717;55.556;37.816;2023-02-17T13:12:58;100052.78;;;-4.77;76.38
62655;BME280;48717;55.556;37.816;2023-02-17T13:15:43;100047.81;;;-4.60;77.32
62655;BME280;48717;55.556;37.816;2023-02-17T13:23:24;100054.34;;;-4.65;74.77
62655;BME280;48717;55.556;37.816;2023-02-17T13:28:39;100045.25;;;-4.74;74.85
62655;BME280;48717;55.556;37.816;2023-02-17T13:31:18;100045.47;;;-4.70;75.91
62655;BME280;48717;55.556;37.816;2023-02-17T13:33:52;100024.69;;;-5.01;72.93
62655;BME280;48717;55.556;37.816;2023-02-17T13:39:05;100045.84;;;-4.91;75.06
62655;BME280;48717;55.556;37.816;2023-02-17T13:41:56;100025.47;;;-5.15;73.33
62655;BME280;48717;55.556;37.816;2023-02-17T13:47:02;100041.88;;;-5.13;70.58
62655;BME280;48717;55.556;37.816;2023-02-17T13:49:32;100040.28;;;-5.25;70.18
62655;BME280;48717;55.556;37.816;2023-02-17T13:52:18;100041.97;;;-5.25;70.42
62655;BME280;48717;55.556;37.816;2023-02-17T13:58:04;99976.38;;;-5.59;70.38
62655;BME280;48717;55.556;37.816;2023-02-17T14:00:31;100030.59;;;-5.29;69.72
62655;BME280;48717;55.556;37.816;2023-02-17T14:05:37;100014.34;;;-5.41;70.67
62655;BME280;48717;55.556;37.816;2023-02-17T14:08:16;100016.25;;;-5.39;70.52
62655;BME280;48717;55.556;37.816;2023-02-17T14:10:44;99992.28;;;-5.51;70.10
62655;BME280;48717;55.556;37.816;2023-02-17T14:13:12;99980.72;;;-5.58;69.93
62655;BME280;48717;55.556;37.816;2023-02-17T14:19:15;100028.41;;;-5.36;70.81